Time;durP1;ratioP1;P1;durP2;ratioP2;P2;SDS_P1;SDS_P2;PMS_P1;PMS_P2;Temp;Humidity;BMP_temperature;BMP_pressure;BME280_temperature;BME280_humidity;BME280_pressure;Samples;Min_cycle;Max_cycle;Signal;HPM_P1;HPM_P2
2022/03/30 00:01:21;;;;;;;32.27;16.90;;;;;;;15.38;40.47;96226.91;5112202;28;20207;-71
2022/03/30 00:03:46;;;;;;;26.97;17.00;;;;;;;15.39;40.52;96225.88;5112034;28;20197;-71
2022/03/30 00:06:12;;;;;;;34.83;15.93;;;;;;;15.39;40.27;96228.53;5112247;28;20721;-72
2022/03/30 00:08:37;;;;;;;28.23;15.33;;;;;;;15.42;40.56;96229.97;5114819;27;20211;-70
2022/03/30 00:11:03;;;;;;;26.43;16.47;;;;;;;15.47;40.56;96230.13;5117899;27;20185;-73
2022/03/30 00:13:28;;;;;;;32.93;17.90;;;;;;;15.46;40.45;96224.06;5112006;28;20571;-72
2022/03/30 00:15:54;;;;;;;26.10;16.20;;;;;;;15.47;40.60;96233.59;5112111;28;20181;-72
2022/03/30 00:18:19;;;;;;;25.67;15.90;;;;;;;15.35;40.63;96228.13;5093639;28;20194;-71
2022/03/30 00:20:45;;;;;;;30.50;15.70;;;;;;;15.23;40.87;96231.63;5111087;28;20177;-71
2022/03/30 00:23:11;;;;;;;29.80;16.20;;;;;;;15.28;40.82;96226.53;5109550;28;20271;-71
2022/03/30 00:25:36;;;;;;;28.03;16.50;;;;;;;15.22;40.76;96230.78;5115613;27;20189;-71
2022/03/30 00:28:02;;;;;;;26.30;16.60;;;;;;;15.28;40.85;96229.16;5120618;27;20561;-71
2022/03/30 00:30:28;;;;;;;40.57;16.77;;;;;;;15.30;40.61;96221.84;5111417;28;20649;-71
2022/03/30 00:32:53;;;;;;;28.40;16.67;;;;;;;15.35;40.78;96219.41;5111759;28;20415;-72
2022/03/30 00:35:19;;;;;;;30.27;17.00;;;;;;;15.39;41.10;96217.97;5093466;28;20230;-72
2022/03/30 00:37:45;;;;;;;32.70;17.70;;;;;;;15.42;41.01;96220.19;5111662;27;20208;-71
2022/03/30 00:40:13;;;;;;;28.27;16.67;;;;;;;15.47;40.91;96217.75;5111505;28;20181;-71
2022/03/30 00:42:39;;;;;;;29.40;15.60;;;;;;;15.52;40.69;96214.50;5093540;28;20169;-71
2022/03/30 00:45:21;;;;;;;28.93;16.37;;;;;;;15.49;40.89;96209.63;5111621;28;20522;-72
2022/03/30 00:47:47;;;;;;;26.73;16.07;;;;;;;15.48;41.25;96203.53;5103487;28;20209;-72
2022/03/30 00:50:16;;;;;;;26.83;15.57;;;;;;;15.46;40.89;96210.84;5109476;27;20426;-74
2022/03/30 00:52:42;;;;;;;29.43;17.30;;;;;;;15.44;40.96;96218.16;5120191;27;20429;-71
2022/03/30 00:55:08;;;;;;;23.17;15.00;;;;;;;15.49;41.07;96215.72;5111782;27;20439;-71
2022/03/30 00:57:35;;;;;;;33.17;17.50;;;;;;;15.52;40.92;96215.28;5110522;28;20462;-71
2022/03/30 01:00:02;;;;;;;29.10;16.23;;;;;;;15.49;40.95;96213.09;5111306;28;20415;-72
2022/03/30 01:02:29;;;;;;;30.03;16.20;;;;;;;15.35;41.41;96214.13;5111227;28;20453;-72
2022/03/30 01:04:54;;;;;;;28.60;15.87;;;;;;;15.35;41.47;96214.94;5096675;28;20975;-72
2022/03/30 01:07:20;;;;;;;31.50;15.13;;;;;;;15.46;41.24;96223.22;5107425;28;20449;-71
2022/03/30 01:09:45;;;;;;;37.90;21.73;;;;;;;15.43;41.32;96226.31;5111134;28;20173;-72
2022/03/30 01:12:12;;;;;;;32.97;20.00;;;;;;;15.45;41.08;96222.44;5119988;28;20212;-73
2022/03/30 01:14:37;;;;;;;30.40;18.27;;;;;;;15.50;40.67;96212.03;5111063;28;20212;-73
2022/03/30 01:17:04;;;;;;;34.27;17.43;;;;;;;15.51;40.55;96207.59;5111562;28;21061;-72
2022/03/30 01:19:31;;;;;;;29.27;15.87;;;;;;;15.50;40.44;96206.75;5111062;28;20585;-72
2022/03/30 01:21:57;;;;;;;24.33;16.93;;;;;;;15.48;40.52;96195.63;5120085;28;20508;-73
2022/03/30 01:24:22;;;;;;;30.83;16.73;;;;;;;15.41;41.08;96192.19;5111066;28;20516;-73
2022/03/30 01:26:48;;;;;;;27.90;15.97;;;;;;;15.53;40.92;96184.44;5111530;28;20845;-71
2022/03/30 01:34:43;;;;;;;26.17;15.40;;;;;;;15.63;40.91;96176.03;5102804;28;20423;-72
2022/03/30 01:37:09;;;;;;;26.50;16.30;;;;;;;15.69;40.56;96182.34;5110952;28;20494;-71
2022/03/30 01:39:35;;;;;;;30.40;16.50;;;;;;;15.65;41.04;96181.94;5110671;28;20889;-72
2022/03/30 01:42:00;;;;;;;25.70;16.23;;;;;;;15.66;41.07;96178.28;5111295;28;20471;-71
2022/03/30 01:44:26;;;;;;;28.33;17.17;;;;;;;15.65;40.96;96179.28;5119293;28;20278;-72
2022/03/30 01:46:52;;;;;;;27.70;17.27;;;;;;;15.62;40.75;96171.81;5119795;28;20177;-72
2022/03/30 01:49:21;;;;;;;32.53;17.00;;;;;;;15.51;41.13;96163.50;5110766;28;20281;-72
2022/03/30 01:51:55;;;;;;;33.70;16.77;;;;;;;15.30;41.56;96153.22;5097152;28;20726;-72
2022/03/30 01:54:22;;;;;;;33.00;16.30;;;;;;;15.27;41.73;96158.91;5116259;28;20429;-74
2022/03/30 01:56:49;;;;;;;35.00;17.33;;;;;;;15.36;41.56;96152.41;5111107;28;20458;-72
2022/03/30 01:59:15;;;;;;;31.20;17.67;;;;;;;15.46;41.52;96147.50;5110595;28;20525;-74
2022/03/30 02:01:41;;;;;;;29.00;17.50;;;;;;;15.53;41.23;96136.91;5089507;28;20507;-73
2022/03/30 02:04:08;;;;;;;35.30;17.87;;;;;;;15.53;41.03;96134.25;5106057;28;20859;-73
2022/03/30 02:06:34;;;;;;;29.20;17.00;;;;;;;15.52;41.34;96125.50;5113226;28;20426;-72
2022/03/30 02:09:00;;;;;;;25.07;14.87;;;;;;;15.42;41.59;96119.09;5118578;27;20446;-73
2022/03/30 02:11:26;;;;;;;35.23;15.40;;;;;;;15.42;41.89;96109.31;5123085;27;20436;-71
2022/03/30 02:13:52;;;;;;;27.40;15.73;;;;;;;15.38;41.71;96117.88;5114604;28;20207;-72
2022/03/30 02:16:18;;;;;;;27.47;16.30;;;;;;;15.39;41.75;96115.00;5114562;28;20461;-72
2022/03/30 02:18:44;;;;;;;25.50;16.73;;;;;;;15.43;42.14;96105.66;5122312;27;20407;-70
2022/03/30 02:21:09;;;;;;;28.60;16.20;;;;;;;15.46;42.34;96099.16;5114521;27;20645;-72
2022/03/30 02:23:35;;;;;;;38.17;19.10;;;;;;;15.49;42.51;96104.84;5113287;28;20265;-72
2022/03/30 02:26:00;;;;;;;36.97;21.90;;;;;;;15.45;42.54;96093.06;5114327;27;20681;-72
2022/03/30 02:28:26;;;;;;;37.20;20.67;;;;;;;15.48;42.34;96105.84;5122576;27;20181;-72
2022/03/30 02:30:51;;;;;;;26.53;16.20;;;;;;;15.47;42.52;96106.03;5114205;28;20181;-70
2022/03/30 02:33:17;;;;;;;28.63;18.27;;;;;;;15.48;42.67;96105.03;5114076;28;20200;-71
2022/03/30 02:35:42;;;;;;;32.97;16.50;;;;;;;15.45;42.44;96086.97;5114456;28;20537;-71
2022/03/30 02:38:08;;;;;;;25.60;15.97;;;;;;;15.24;43.18;96091.53;5114029;28;20212;-71
2022/03/30 02:40:33;;;;;;;25.50;15.77;;;;;;;15.17;43.32;96096.81;5084731;28;20675;-72
2022/03/30 02:42:59;;;;;;;27.20;15.73;;;;;;;15.26;43.30;96091.31;5114064;28;20649;-71
2022/03/30 02:45:24;;;;;;;33.47;15.93;;;;;;;15.27;43.49;96088.47;5114040;28;20181;-72
2022/03/30 02:50:33;;;;;;;27.27;16.30;;;;;;;15.30;43.38;96085.44;5113173;28;20181;-71
2022/03/30 02:52:59;;;;;;;37.87;17.07;;;;;;;15.23;43.61;96087.25;5113628;27;20473;-71
2022/03/30 02:55:24;;;;;;;35.23;16.03;;;;;;;15.17;43.93;96086.28;5122111;27;20645;-72
2022/03/30 02:57:50;;;;;;;24.53;16.10;;;;;;;15.24;43.39;96080.19;5113354;28;20215;-72
2022/03/30 03:00:15;;;;;;;30.10;18.30;;;;;;;15.34;43.31;96085.81;5101686;27;20578;-71
2022/03/30 03:02:43;;;;;;;27.50;17.70;;;;;;;15.24;43.28;96074.91;5117349;27;20165;-74
2022/03/30 03:05:08;;;;;;;37.47;17.23;;;;;;;15.20;43.96;96079.75;5117883;27;20285;-71
2022/03/30 03:07:34;;;;;;;26.57;16.77;;;;;;;15.28;43.86;96078.72;5078639;28;20506;-71
2022/03/30 03:09:59;;;;;;;26.57;16.20;;;;;;;15.22;43.48;96076.94;5080937;28;20182;-71
2022/03/30 03:12:25;;;;;;;32.63;18.10;;;;;;;15.10;43.56;96072.31;5109365;27;20184;-72
2022/03/30 03:14:50;;;;;;;28.20;17.40;;;;;;;15.15;43.63;96069.03;5081328;27;20699;-72
2022/03/30 03:17:16;;;;;;;31.47;17.63;;;;;;;15.20;43.41;96079.75;5133455;27;20683;-70
2022/03/30 03:19:42;;;;;;;34.90;17.83;;;;;;;15.16;43.42;96076.72;5112279;28;20181;-72
2022/03/30 03:22:08;;;;;;;32.90;16.87;;;;;;;15.11;43.32;96067.81;5117926;27;20185;-72
2022/03/30 03:24:33;;;;;;;23.50;16.00;;;;;;;15.03;43.03;96066.22;5113476;28;20817;-70
2022/03/30 03:26:59;;;;;;;34.83;16.33;;;;;;;15.07;43.30;96070.06;5114039;28;20427;-71
2022/03/30 03:29:25;;;;;;;27.30;16.73;;;;;;;15.17;42.73;96072.28;5111758;28;20264;-72
2022/03/30 03:31:51;;;;;;;29.50;16.30;;;;;;;15.23;42.79;96062.72;5113591;28;20768;-72
2022/03/30 03:34:16;;;;;;;29.87;16.57;;;;;;;15.33;42.69;96068.34;5113499;28;20431;-72
2022/03/30 03:36:42;;;;;;;36.03;16.80;;;;;;;15.35;42.34;96061.03;5112181;28;20197;-72
2022/03/30 03:39:07;;;;;;;28.07;16.60;;;;;;;15.30;42.63;96064.31;5115251;27;20193;-72
2022/03/30 03:41:33;;;;;;;31.77;17.00;;;;;;;15.25;43.50;96058.84;5105028;27;20186;-74
2022/03/30 03:43:58;;;;;;;22.13;15.53;;;;;;;15.30;43.79;96061.66;5133406;27;20302;-71
2022/03/30 03:46:24;;;;;;;25.67;15.60;;;;;;;15.37;43.50;96053.72;5113936;27;20176;-74
2022/03/30 03:48:50;;;;;;;26.43;16.83;;;;;;;15.40;43.40;96058.56;5121148;27;20180;-72
2022/03/30 03:51:15;;;;;;;28.43;16.80;;;;;;;15.40;43.19;96055.91;5129891;27;20411;-72
2022/03/30 03:53:41;;;;;;;29.83;16.33;;;;;;;15.42;43.17;96059.16;5121258;27;20280;-72
2022/03/30 03:56:06;;;;;;;25.10;16.60;;;;;;;15.26;44.09;96054.34;5112372;28;20373;-71
2022/03/30 03:58:32;;;;;;;30.23;17.57;;;;;;;15.06;44.57;96050.00;5111040;27;20173;-73
2022/03/30 04:00:58;;;;;;;31.10;16.80;;;;;;;15.08;44.23;96053.22;5112300;28;20189;-71
2022/03/30 04:03:23;;;;;;;27.07;16.73;;;;;;;15.16;44.21;96045.06;5112155;28;20669;-71
2022/03/30 04:05:49;;;;;;;29.37;16.37;;;;;;;15.17;43.82;96048.53;5115183;27;20434;-73
2022/03/30 04:08:15;;;;;;;29.80;16.27;;;;;;;15.19;42.68;96055.22;5109149;28;20276;-72
2022/03/30 04:10:41;;;;;;;30.10;15.83;;;;;;;15.22;42.59;96050.53;5114716;27;20816;-72
2022/03/30 04:13:07;;;;;;;26.40;15.70;;;;;;;15.18;42.24;96050.94;5119597;27;20516;-72
2022/03/30 04:15:34;;;;;;;24.20;15.37;;;;;;;15.22;42.21;96047.91;5115971;27;20177;-71
2022/03/30 04:18:00;;;;;;;32.13;15.60;;;;;;;15.16;42.30;96050.34;5126694;27;20451;-72
2022/03/30 04:20:26;;;;;;;26.40;16.53;;;;;;;15.06;42.87;96047.34;5112911;27;20815;-71
2022/03/30 04:22:51;;;;;;;42.23;17.10;;;;;;;15.13;42.76;96053.41;5132875;27;20422;-71
2022/03/30 04:25:17;;;;;;;35.33;15.83;;;;;;;15.07;43.01;96048.97;5132214;27;20264;-71
2022/03/30 04:27:50;;;;;;;28.23;15.10;;;;;;;15.11;43.30;96038.81;5112295;28;20175;-73
2022/03/30 04:30:17;;;;;;;32.07;14.63;;;;;;;15.11;43.70;96044.91;5120263;27;20275;-72
2022/03/30 04:32:42;;;;;;;33.80;15.00;;;;;;;15.18;43.68;96050.16;5111388;27;20506;-73
2022/03/30 04:35:08;;;;;;;34.13;14.90;;;;;;;15.09;44.56;96043.47;5111503;28;20805;-71
2022/03/30 04:37:34;;;;;;;27.80;14.40;;;;;;;15.10;44.79;96053.84;5099100;27;20205;-72
2022/03/30 04:39:59;;;;;;;32.87;14.27;;;;;;;15.18;45.09;96048.31;5107611;27;20177;-73
2022/03/30 04:42:24;;;;;;;29.23;14.90;;;;;;;15.16;45.45;96046.91;5118823;27;20169;-72
2022/03/30 04:44:50;;;;;;;30.83;14.10;;;;;;;15.17;46.21;96044.06;5118826;27;20579;-71
2022/03/30 04:47:16;;;;;;;29.43;14.20;;;;;;;15.23;46.82;96046.88;5119894;27;20203;-73
2022/03/30 04:49:41;;;;;;;25.23;14.33;;;;;;;15.24;46.85;96051.16;5108144;28;20181;-73
2022/03/30 04:52:07;;;;;;;27.27;13.97;;;;;;;15.16;47.30;96052.97;5094575;28;20261;-71
2022/03/30 04:54:33;;;;;;;27.63;14.77;;;;;;;15.12;47.92;96050.97;5109863;28;20228;-71
2022/03/30 04:56:58;;;;;;;33.73;13.67;;;;;;;15.08;48.39;96047.97;5117416;28;20445;-71
2022/03/30 04:59:24;;;;;;;41.37;14.60;;;;;;;15.08;48.42;96050.59;5121603;27;20260;-71
2022/03/30 05:01:49;;;;;;;39.37;14.57;;;;;;;14.99;49.23;96054.50;5111467;28;20268;-70
2022/03/30 05:04:15;;;;;;;36.13;13.90;;;;;;;14.95;49.24;96046.16;5111279;28;20201;-70
2022/03/30 05:06:40;;;;;;;26.60;14.03;;;;;;;14.88;50.32;96046.19;5128389;27;20229;-71
2022/03/30 05:09:06;;;;;;;33.10;14.57;;;;;;;14.76;50.83;96052.31;5110165;28;20173;-71
2022/03/30 05:11:31;;;;;;;31.83;13.40;;;;;;;14.72;51.17;96046.66;5108555;28;20176;-70
2022/03/30 05:13:57;;;;;;;35.13;14.63;;;;;;;14.61;51.50;96044.63;5110608;28;20215;-71
2022/03/30 05:16:23;;;;;;;31.30;13.17;;;;;;;14.68;51.69;96040.16;5110871;28;20705;-70
2022/03/30 05:18:48;;;;;;;29.03;13.43;;;;;;;14.55;52.24;96041.00;5096555;28;20205;-71
2022/03/30 05:21:14;;;;;;;25.53;14.30;;;;;;;14.53;52.64;96038.53;5106740;28;20181;-70
2022/03/30 05:23:39;;;;;;;30.60;14.13;;;;;;;14.43;53.06;96035.50;5117312;28;20193;-70
2022/03/30 05:26:05;;;;;;;30.17;14.00;;;;;;;14.49;53.54;96037.31;5112285;28;20252;-72
2022/03/30 05:28:30;;;;;;;34.33;13.50;;;;;;;14.51;53.72;96030.00;5104571;28;20192;-71
2022/03/30 05:30:56;;;;;;;42.10;13.67;;;;;;;14.55;53.74;96033.06;5106524;28;20665;-70
2022/03/30 05:33:21;;;;;;;33.60;15.83;;;;;;;14.59;53.86;96037.72;5109956;28;20210;-69
2022/03/30 05:35:50;;;;;;;45.47;14.60;;;;;;;14.57;54.16;96033.66;5109686;28;20187;-69
2022/03/30 05:38:16;;;;;;;31.37;14.93;;;;;;;14.63;54.42;96032.03;5111075;28;20346;-69
2022/03/30 05:40:42;;;;;;;38.77;15.57;;;;;;;14.65;54.79;96032.63;5103270;28;20439;-68
2022/03/30 05:43:08;;;;;;;34.90;15.30;;;;;;;14.62;55.09;96027.78;5120069;27;20874;-69
2022/03/30 05:45:34;;;;;;;36.77;14.93;;;;;;;14.49;55.52;96036.53;5116685;27;20853;-70
2022/03/30 05:47:59;;;;;;;36.40;15.40;;;;;;;14.57;55.44;96023.94;5115178;28;20499;-68
2022/03/30 05:50:25;;;;;;;33.80;15.27;;;;;;;14.61;55.94;96031.44;5104685;28;20276;-71
2022/03/30 05:52:51;;;;;;;29.83;15.37;;;;;;;14.66;56.65;96032.44;5115780;27;20211;-69
2022/03/30 05:55:17;;;;;;;34.80;15.50;;;;;;;14.56;56.34;96034.66;5123470;27;20204;-69
2022/03/30 05:57:42;;;;;;;49.57;16.10;;;;;;;14.51;55.56;96030.00;5115589;28;20471;-70
2022/03/30 06:00:10;;;;;;;32.20;15.40;;;;;;;14.51;56.03;96027.38;5124093;27;20177;-70
2022/03/30 06:02:35;;;;;;;36.37;14.60;;;;;;;14.53;56.24;96029.84;5115534;28;20181;-69
2022/03/30 06:05:01;;;;;;;39.97;16.10;;;;;;;14.47;56.59;96031.47;5115400;28;20812;-69
2022/03/30 06:07:26;;;;;;;41.03;16.30;;;;;;;14.36;57.33;96032.09;5114587;28;20188;-70
2022/03/30 06:09:52;;;;;;;40.13;15.30;;;;;;;14.38;57.30;96032.66;5114810;28;20181;-69
2022/03/30 06:12:17;;;;;;;35.93;14.87;;;;;;;14.28;57.30;96038.38;5122658;27;20657;-69
2022/03/30 06:14:43;;;;;;;36.20;15.67;;;;;;;14.27;57.78;96027.00;5114787;28;20203;-71
2022/03/30 06:17:09;;;;;;;33.50;15.67;;;;;;;14.13;58.42;96028.03;5114725;28;20220;-70
2022/03/30 06:19:35;;;;;;;36.27;16.60;;;;;;;14.19;58.55;96027.22;5114249;28;20177;-69
2022/03/30 06:22:05;;;;;;;33.90;16.53;;;;;;;14.23;58.53;96025.81;5104978;27;20435;-69
2022/03/30 06:24:31;;;;;;;39.73;16.97;;;;;;;14.37;58.68;96017.88;5103945;28;20193;-69
2022/03/30 06:26:57;;;;;;;38.23;17.27;;;;;;;14.41;58.22;96019.91;5099458;28;20423;-69
2022/03/30 06:29:22;;;;;;;31.87;16.57;;;;;;;14.48;58.06;96016.44;5111770;28;20555;-69
2022/03/30 06:31:48;;;;;;;29.73;15.20;;;;;;;14.36;57.97;96017.06;5108623;28;20204;-70
2022/03/30 06:34:13;;;;;;;28.33;15.40;;;;;;;14.15;59.10;96020.75;5114281;28;20260;-70
2022/03/30 06:36:38;;;;;;;36.67;16.33;;;;;;;14.01;59.49;96022.59;5114051;28;20189;-68
2022/03/30 06:39:05;;;;;;;29.30;16.03;;;;;;;14.04;59.79;96021.34;5111572;28;20185;-68
2022/03/30 06:41:30;;;;;;;41.50;16.47;;;;;;;14.12;59.77;96021.97;5113749;28;20250;-69
2022/03/30 06:43:56;;;;;;;32.53;15.83;;;;;;;14.02;60.24;96016.31;5114122;28;20832;-70
2022/03/30 06:46:22;;;;;;;39.90;16.30;;;;;;;14.14;60.37;96016.50;5114201;28;20188;-70
2022/03/30 06:48:47;;;;;;;37.00;15.83;;;;;;;14.24;60.24;96016.88;5113680;28;20770;-71
2022/03/30 06:51:14;;;;;;;32.43;15.10;;;;;;;14.34;59.52;96003.28;5114202;28;20204;-70
2022/03/30 06:53:40;;;;;;;37.63;15.17;;;;;;;14.27;59.04;96008.56;5117264;27;20203;-70
2022/03/30 06:56:05;;;;;;;32.50;16.47;;;;;;;14.23;59.38;95996.84;5118109;28;20418;-70
2022/03/30 06:58:31;;;;;;;30.83;16.03;;;;;;;14.26;59.16;96000.88;5113505;28;20177;-70
2022/03/30 07:00:59;;;;;;;29.70;15.73;;;;;;;14.22;59.86;96003.13;5113723;28;20196;-69
2022/03/30 07:03:26;;;;;;;37.70;16.83;;;;;;;14.29;59.32;95993.38;5113571;28;20303;-70
2022/03/30 07:05:52;;;;;;;33.97;15.20;;;;;;;14.34;59.76;96002.50;5111733;28;20418;-69
2022/03/30 07:11:02;;;;;;;35.10;14.70;;;;;;;14.17;58.40;95995.00;5113747;27;20415;-70
2022/03/30 07:13:27;;;;;;;38.50;14.90;;;;;;;14.23;58.59;95996.00;5113546;28;20446;-70
2022/03/30 07:15:52;;;;;;;38.37;14.90;;;;;;;14.20;57.91;96002.50;5118975;27;20267;-71
2022/03/30 07:18:19;;;;;;;37.47;13.43;;;;;;;14.24;57.42;95993.16;5116616;27;20201;-70
2022/03/30 07:20:45;;;;;;;31.93;13.33;;;;;;;14.34;57.39;95982.22;5099408;28;20222;-70
2022/03/30 07:23:11;;;;;;;28.73;13.40;;;;;;;14.35;56.76;95988.31;5109492;27;20434;-69
2022/03/30 07:25:37;;;;;;;33.80;14.63;;;;;;;14.39;56.56;95977.13;5116212;27;20176;-69
2022/03/30 07:28:03;;;;;;;40.00;16.17;;;;;;;14.36;56.54;95977.53;5118762;27;20645;-69
2022/03/30 07:30:30;;;;;;;41.50;14.93;;;;;;;14.32;56.80;95978.16;5112911;28;20429;-69
2022/03/30 07:32:56;;;;;;;31.80;14.60;;;;;;;14.32;56.97;95978.16;5113109;28;20414;-70
2022/03/30 07:35:24;;;;;;;36.93;15.43;;;;;;;14.34;56.58;95979.56;5121246;27;21374;-69
2022/03/30 07:37:50;;;;;;;30.93;13.87;;;;;;;14.33;57.15;95982.44;5113260;28;20462;-69
2022/03/30 07:40:18;;;;;;;27.33;14.00;;;;;;;14.24;56.63;95974.72;5113683;27;20800;-69
2022/03/30 07:42:46;;;;;;;33.87;13.23;;;;;;;14.20;56.65;95977.97;5105100;28;20456;-71
2022/03/30 07:45:11;;;;;;;30.23;14.30;;;;;;;14.13;56.68;95980.63;5100410;28;21056;-71
2022/03/30 07:47:37;;;;;;;30.60;15.00;;;;;;;14.20;56.41;95970.91;5112408;28;20415;-69
2022/03/30 07:50:04;;;;;;;35.70;15.37;;;;;;;14.21;56.22;95967.25;5112730;28;20270;-70
2022/03/30 07:52:30;;;;;;;29.90;15.00;;;;;;;14.21;56.34;95969.88;5123221;27;20505;-70
2022/03/30 07:54:55;;;;;;;31.13;14.50;;;;;;;14.20;56.67;95970.91;5116696;28;20462;-70
2022/03/30 07:57:31;;;;;;;33.93;14.30;;;;;;;14.20;56.71;95968.25;5116750;27;20681;-70
2022/03/30 07:59:58;;;;;;;34.47;13.63;;;;;;;14.18;56.50;95969.47;5113126;28;20534;-70
2022/03/30 08:02:24;;;;;;;39.67;14.57;;;;;;;14.18;56.36;95959.75;5113714;28;20430;-71
2022/03/30 08:04:50;;;;;;;38.20;15.27;;;;;;;14.17;56.58;95963.41;5122178;27;20518;-71
2022/03/30 08:07:16;;;;;;;35.33;15.47;;;;;;;14.17;56.77;95965.22;5112844;28;20498;-71
2022/03/30 08:09:42;;;;;;;35.33;15.10;;;;;;;14.16;56.97;95972.31;5104613;27;20675;-70
2022/03/30 08:12:12;;;;;;;31.57;14.10;;;;;;;14.17;57.07;95971.28;5095737;28;20665;-70
2022/03/30 08:14:38;;;;;;;25.50;13.70;;;;;;;14.23;57.47;95969.66;5111416;27;20531;-70
2022/03/30 08:17:04;;;;;;;31.00;13.90;;;;;;;14.28;57.11;95972.50;5112354;28;20507;-69
2022/03/30 08:19:29;;;;;;;30.30;14.23;;;;;;;14.32;56.76;95972.91;5112184;28;20422;-70
2022/03/30 08:24:39;;;;;;;28.37;13.83;;;;;;;14.42;56.97;95971.47;5112422;28;20613;-70
2022/03/30 08:27:05;;;;;;;36.10;14.40;;;;;;;14.41;56.97;95974.28;5112383;28;20411;-70
2022/03/30 08:29:30;;;;;;;32.50;13.10;;;;;;;14.32;57.63;95965.78;5111713;28;20931;-69
2022/03/30 08:31:56;;;;;;;29.77;13.40;;;;;;;14.43;57.49;95969.63;5112276;28;20184;-70
2022/03/30 08:34:21;;;;;;;37.73;12.97;;;;;;;14.43;56.98;95977.53;5112606;27;20668;-70
2022/03/30 08:36:47;;;;;;;29.43;12.50;;;;;;;14.44;57.44;95974.69;5119787;27;20201;-69
2022/03/30 08:39:12;;;;;;;36.27;12.80;;;;;;;14.40;57.07;95965.59;5111562;28;20276;-69
2022/03/30 08:41:42;;;;;;;30.20;13.20;;;;;;;14.46;56.95;95969.22;5111739;28;20177;-70
2022/03/30 08:44:08;;;;;;;34.73;12.30;;;;;;;14.43;57.20;95974.91;5111700;28;20197;-69
2022/03/30 08:46:34;;;;;;;26.80;13.20;;;;;;;14.44;57.41;95972.03;5120283;27;20418;-69
2022/03/30 08:48:59;;;;;;;35.53;12.23;;;;;;;14.47;57.33;95973.47;5126289;27;20200;-69
2022/03/30 08:51:25;;;;;;;39.77;12.80;;;;;;;14.50;57.60;95975.69;5114365;27;20181;-71
2022/03/30 08:53:50;;;;;;;31.57;12.70;;;;;;;14.47;57.33;95976.13;5090207;28;20209;-69
2022/03/30 08:56:17;;;;;;;40.57;12.57;;;;;;;14.51;57.12;95981.78;5108034;28;20173;-70
2022/03/30 08:58:43;;;;;;;30.73;12.23;;;;;;;14.51;56.88;95974.66;5119718;27;20272;-70
2022/03/30 09:01:12;;;;;;;31.93;12.50;;;;;;;14.58;56.79;95972.84;5111780;28;20422;-70
2022/03/30 09:03:57;;;;;;;33.20;12.27;;;;;;;14.63;56.81;95979.28;5111533;28;20279;-69
2022/03/30 09:06:37;;;;;;;27.03;10.60;;;;;;;14.51;56.16;95971.22;5110818;28;20528;-71
2022/03/30 09:09:03;;;;;;;37.77;11.23;;;;;;;14.58;56.67;95970.19;5111225;28;20422;-70
2022/03/30 09:11:32;;;;;;;25.37;11.63;;;;;;;14.59;56.17;95973.63;5111486;28;20939;-69
2022/03/30 09:14:02;;;;;;;31.70;11.40;;;;;;;14.59;56.36;95974.44;5095852;28;20440;-70
2022/03/30 09:16:45;;;;;;;26.20;10.70;;;;;;;14.65;56.06;95974.63;5108724;28;20495;-70
2022/03/30 09:19:12;;;;;;;33.07;10.80;;;;;;;14.63;56.16;95963.47;5114144;28;20576;-71
2022/03/30 09:21:47;;;;;;;28.37;11.97;;;;;;;14.63;56.41;95974.03;5118182;27;20414;-70
2022/03/30 09:24:14;;;;;;;23.20;10.30;;;;;;;14.67;56.63;95964.69;5119616;27;20442;-70
2022/03/30 09:26:41;;;;;;;37.73;11.50;;;;;;;14.71;56.69;95963.28;5101021;27;20417;-70
2022/03/30 09:29:07;;;;;;;35.03;11.47;;;;;;;14.71;56.53;95961.44;5120189;27;20439;-70
2022/03/30 09:31:34;;;;;;;33.17;10.93;;;;;;;14.73;56.88;95959.41;5115403;28;20523;-71
2022/03/30 09:34:01;;;;;;;31.47;11.00;;;;;;;14.77;57.11;95959.00;5115327;28;20207;-70
2022/03/30 09:36:31;;;;;;;26.63;10.97;;;;;;;14.76;57.06;95958.19;5115255;28;20545;-70
2022/03/30 09:38:57;;;;;;;31.40;11.20;;;;;;;14.77;57.32;95959.81;5115195;28;20804;-72
2022/03/30 09:41:23;;;;;;;42.17;11.37;;;;;;;14.86;56.86;95960.38;5115525;28;20415;-70
2022/03/30 09:43:48;;;;;;;27.77;10.97;;;;;;;14.82;57.09;95959.16;5115478;28;20236;-69
2022/03/30 09:46:15;;;;;;;45.70;11.90;;;;;;;14.74;57.28;95957.59;5115305;28;20264;-70
2022/03/30 09:48:50;;;;;;;25.47;10.70;;;;;;;14.82;57.68;95954.72;5114801;28;20177;-70
2022/03/30 09:51:20;;;;;;;25.53;10.87;;;;;;;14.89;57.56;95952.84;5115571;28;20421;-72
2022/03/30 09:53:46;;;;;;;26.73;10.67;;;;;;;14.92;56.97;95950.81;5105784;28;20522;-72
2022/03/30 09:56:19;;;;;;;20.20;11.13;;;;;;;14.96;56.86;95941.47;5112275;28;20418;-72
2022/03/30 09:58:45;;;;;;;27.60;11.47;;;;;;;14.99;57.07;95949.78;5119521;27;20417;-71
2022/03/30 10:01:19;;;;;;;23.33;10.67;;;;;;;14.98;56.71;95945.50;5127663;27;20421;-71
2022/03/30 10:03:50;;;;;;;32.70;11.60;;;;;;;15.04;56.88;95949.13;5115258;28;20439;-71
2022/03/30 10:06:40;;;;;;;26.93;11.10;;;;;;;15.11;57.07;95949.91;5096763;28;20423;-72
2022/03/30 10:09:06;;;;;;;48.13;11.07;;;;;;;15.11;56.91;95934.09;5114762;28;20411;-71
2022/03/30 10:11:32;;;;;;;29.00;10.13;;;;;;;15.10;56.66;95937.75;5114457;28;20490;-73
2022/03/30 10:13:59;;;;;;;35.87;11.47;;;;;;;15.23;56.75;95933.41;5115079;28;20664;-72
2022/03/30 10:16:25;;;;;;;21.70;10.07;;;;;;;15.27;56.81;95926.66;5113551;27;20263;-73
2022/03/30 10:18:51;;;;;;;30.90;10.20;;;;;;;15.28;57.41;95918.56;5114529;28;20447;-72
2022/03/30 10:21:19;;;;;;;28.30;10.53;;;;;;;15.27;56.91;95921.38;5123049;27;20433;-72
2022/03/30 10:24:30;;;;;;;24.37;11.40;;;;;;;15.36;56.85;95920.13;5121235;27;20471;-73
2022/03/30 10:27:45;;;;;;;25.10;10.93;;;;;;;15.58;56.95;95915.28;5111815;27;20521;-72
2022/03/30 10:30:11;;;;;;;25.17;11.00;;;;;;;15.74;56.64;95910.47;5031068;28;20814;-72
2022/03/30 10:32:39;;;;;;;38.53;10.40;;;;;;;15.81;56.38;95913.88;5129847;27;20450;-73
2022/03/30 10:35:10;;;;;;;16.53;9.47;;;;;;;15.80;55.83;95907.78;5114367;28;20962;-72
2022/03/30 10:37:43;;;;;;;34.03;11.47;;;;;;;15.76;55.61;95906.59;5114211;28;20454;-72
2022/03/30 10:40:17;;;;;;;37.17;12.60;;;;;;;15.76;55.31;95903.16;5114632;28;20481;-73
2022/03/30 10:42:45;;;;;;;33.57;10.77;;;;;;;15.80;55.27;95902.50;5110374;27;20791;-73
2022/03/30 10:45:18;;;;;;;30.90;9.43;;;;;;;15.82;55.41;95884.59;5118790;27;20776;-73
2022/03/30 10:48:05;;;;;;;29.27;10.63;;;;;;;15.86;55.94;95889.50;5106456;28;20412;-73
2022/03/30 10:50:41;;;;;;;20.40;10.43;;;;;;;15.88;55.73;95890.88;5122517;27;20778;-73
2022/03/30 10:53:34;;;;;;;18.33;9.73;;;;;;;15.87;55.75;95888.47;5114579;27;20501;-72
2022/03/30 10:56:14;;;;;;;23.47;8.80;;;;;;;15.90;55.31;95888.84;5118652;27;20414;-72
2022/03/30 10:59:06;;;;;;;23.97;9.90;;;;;;;15.90;55.33;95885.38;5113960;28;20422;-72
2022/03/30 11:01:33;;;;;;;21.30;9.50;;;;;;;15.99;54.90;95877.97;5114176;28;20411;-71
2022/03/30 11:04:18;;;;;;;30.80;9.83;;;;;;;15.75;54.96;95883.03;5098554;28;20445;-72
2022/03/30 11:07:13;;;;;;;27.13;9.77;;;;;;;15.90;55.06;95877.44;5160381;27;20403;-72
2022/03/30 11:09:40;;;;;;;15.70;8.77;;;;;;;16.01;54.57;95868.78;5088602;27;20424;-72
2022/03/30 11:12:13;;;;;;;23.30;10.37;;;;;;;16.01;54.26;95868.78;5073788;28;20449;-71
2022/03/30 11:14:43;;;;;;;16.90;8.80;;;;;;;16.03;53.41;95866.75;5078300;28;20620;-71
2022/03/30 11:17:13;;;;;;;26.07;9.07;;;;;;;16.03;53.61;95860.66;5113991;28;20509;-72
2022/03/30 11:19:48;;;;;;;23.30;9.20;;;;;;;16.04;54.11;95860.44;5113671;28;20506;-72
2022/03/30 11:22:28;;;;;;;16.50;9.17;;;;;;;16.09;54.12;95855.31;5114092;27;20430;-71
2022/03/30 11:25:13;;;;;;;19.03;9.00;;;;;;;16.11;54.00;95857.72;5107252;28;20443;-72
2022/03/30 11:27:40;;;;;;;25.43;9.70;;;;;;;16.18;53.81;95857.63;5122210;27;20437;-72
2022/03/30 11:30:14;;;;;;;22.63;9.17;;;;;;;16.06;53.37;95849.66;5113334;28;21030;-72
2022/03/30 11:32:53;;;;;;;16.63;10.13;;;;;;;16.07;52.95;95865.28;5113248;28;20975;-73